Mendota, Minnesota
Current Conditions -  °F | °C
As of 2:53 AM on Saturday 22 Nov 2014 (Local Time) from KMSP Reporting Station
Haze Haze  
Wind Chill: 29°   Ceiling: 1100
Heat Index: 36°   Visibility: 5mi
Dew Point: 32°   Wind: 9mph
Humidity: 86%   Direction: 200°SSW
Pressure: 29.83"   Gusts: NA
Location:  44.89°N, 93.16°W
Report Text: KMSP 220853Z 20008KT 5SM BR OVC011 02/00 A2983 RMK AO2 SLP112 T00220000 56015
Loading
Personal Weather Stations






























Interactive Weather Map New forecast layout! Learn more

10-Day Weather Forecast

Advertisements
Track Severe Weather on mobile